Terminal Aerodrome Forecast
Issued by NWS

Home | Current Version | Previous Version | Text Only | Print | Product List | Glossary On
Versions: 1 2 3 4 5 6 7 8 9 10 11 12 13 14 15 16 17
000
FTUS46 KLOX 080639 AAA
TAFOXR
TAF AMD
KOXR 080639Z 0807/0906 06015KT P6SM SKC WS020/04045KT
     FM080900 07017G27KT P6SM SKC WS020/04045KT
     FM081600 08020G30KT P6SM SKC
     FM082000 07015G25KT P6SM SKC
     FM090400 06014KT P6SM SKC=

USA.gov is the U.S. government's official web portal to all federal, state and local government web resources and services.